sensor_id;sensor_type;location;lat;lon;timestamp;P1;durP1;ratioP1;P2;durP2;ratioP2
59193;SDS011;44967;48.598;15.650;2024-03-02T00:00:14;48.30;;;29.10;;
59193;SDS011;44967;48.598;15.650;2024-03-02T00:02:44;50.72;;;28.77;;
59193;SDS011;44967;48.598;15.650;2024-03-02T00:05:14;47.35;;;27.73;;
59193;SDS011;44967;48.598;15.650;2024-03-02T00:07:41;74.20;;;40.00;;
59193;SDS011;44967;48.598;15.650;2024-03-02T00:10:09;93.00;;;45.88;;
59193;SDS011;44967;48.598;15.650;2024-03-02T00:12:37;76.50;;;39.78;;
59193;SDS011;44967;48.598;15.650;2024-03-02T00:15:05;60.80;;;32.25;;
59193;SDS011;44967;48.598;15.650;2024-03-02T00:17:53;54.67;;;30.23;;
59193;SDS011;44967;48.598;15.650;2024-03-02T00:20:24;55.38;;;31.75;;
59193;SDS011;44967;48.598;15.650;2024-03-02T00:22:55;53.53;;;31.20;;
59193;SDS011;44967;48.598;15.650;2024-03-02T00:25:41;58.05;;;31.90;;
59193;SDS011;44967;48.598;15.650;2024-03-02T00:28:13;45.88;;;27.25;;
59193;SDS011;44967;48.598;15.650;2024-03-02T00:33:36;47.97;;;28.00;;
59193;SDS011;44967;48.598;15.650;2024-03-02T00:36:05;54.97;;;30.52;;
59193;SDS011;44967;48.598;15.650;2024-03-02T00:38:32;52.80;;;29.38;;
59193;SDS011;44967;48.598;15.650;2024-03-02T00:41:06;56.70;;;29.50;;
59193;SDS011;44967;48.598;15.650;2024-03-02T00:46:19;47.20;;;27.25;;
59193;SDS011;44967;48.598;15.650;2024-03-02T00:48:58;44.40;;;25.73;;
59193;SDS011;44967;48.598;15.650;2024-03-02T00:51:26;51.67;;;27.98;;
59193;SDS011;44967;48.598;15.650;2024-03-02T00:53:55;48.03;;;28.63;;
59193;SDS011;44967;48.598;15.650;2024-03-02T00:56:24;51.83;;;30.00;;
59193;SDS011;44967;48.598;15.650;2024-03-02T00:58:51;53.53;;;30.35;;
59193;SDS011;44967;48.598;15.650;2024-03-02T01:01:17;50.67;;;28.27;;
59193;SDS011;44967;48.598;15.650;2024-03-02T01:03:45;51.97;;;30.23;;
59193;SDS011;44967;48.598;15.650;2024-03-02T01:06:11;51.35;;;30.25;;
59193;SDS011;44967;48.598;15.650;2024-03-02T01:08:37;60.80;;;31.88;;
59193;SDS011;44967;48.598;15.650;2024-03-02T01:11:04;59.65;;;31.45;;
59193;SDS011;44967;48.598;15.650;2024-03-02T01:13:30;55.42;;;30.48;;
59193;SDS011;44967;48.598;15.650;2024-03-02T01:15:57;59.47;;;31.77;;
59193;SDS011;44967;48.598;15.650;2024-03-02T01:18:23;51.22;;;27.65;;
59193;SDS011;44967;48.598;15.650;2024-03-02T01:20:49;46.08;;;27.80;;
59193;SDS011;44967;48.598;15.650;2024-03-02T01:23:20;43.05;;;25.25;;
59193;SDS011;44967;48.598;15.650;2024-03-02T01:25:47;47.72;;;27.30;;
59193;SDS011;44967;48.598;15.650;2024-03-02T01:28:13;44.60;;;25.38;;
59193;SDS011;44967;48.598;15.650;2024-03-02T01:30:43;51.08;;;28.02;;
59193;SDS011;44967;48.598;15.650;2024-03-02T01:33:09;51.92;;;28.05;;
59193;SDS011;44967;48.598;15.650;2024-03-02T01:35:34;54.10;;;30.17;;
59193;SDS011;44967;48.598;15.650;2024-03-02T01:38:01;52.65;;;29.38;;
59193;SDS011;44967;48.598;15.650;2024-03-02T01:40:28;51.17;;;29.13;;
59193;SDS011;44967;48.598;15.650;2024-03-02T01:42:54;50.65;;;27.52;;
59193;SDS011;44967;48.598;15.650;2024-03-02T01:45:21;50.88;;;28.40;;
59193;SDS011;44967;48.598;15.650;2024-03-02T01:47:47;54.55;;;29.58;;
59193;SDS011;44967;48.598;15.650;2024-03-02T01:50:13;55.90;;;31.33;;
59193;SDS011;44967;48.598;15.650;2024-03-02T01:52:39;56.55;;;31.05;;
59193;SDS011;44967;48.598;15.650;2024-03-02T01:55:05;53.75;;;31.10;;
59193;SDS011;44967;48.598;15.650;2024-03-02T01:57:32;53.65;;;31.08;;
59193;SDS011;44967;48.598;15.650;2024-03-02T01:59:58;56.90;;;30.83;;
59193;SDS011;44967;48.598;15.650;2024-03-02T02:02:25;58.63;;;32.17;;
59193;SDS011;44967;48.598;15.650;2024-03-02T02:04:51;57.95;;;31.85;;
59193;SDS011;44967;48.598;15.650;2024-03-02T02:07:17;58.08;;;30.92;;
59193;SDS011;44967;48.598;15.650;2024-03-02T02:09:43;50.35;;;28.73;;
59193;SDS011;44967;48.598;15.650;2024-03-02T02:12:09;47.22;;;27.35;;
59193;SDS011;44967;48.598;15.650;2024-03-02T02:14:35;56.92;;;29.27;;
59193;SDS011;44967;48.598;15.650;2024-03-02T02:17:02;51.00;;;29.05;;
59193;SDS011;44967;48.598;15.650;2024-03-02T02:19:28;57.03;;;30.17;;
59193;SDS011;44967;48.598;15.650;2024-03-02T02:21:54;53.25;;;29.27;;
59193;SDS011;44967;48.598;15.650;2024-03-02T02:24:20;50.03;;;28.65;;
59193;SDS011;44967;48.598;15.650;2024-03-02T02:26:46;52.20;;;30.10;;
59193;SDS011;44967;48.598;15.650;2024-03-02T02:29:11;51.08;;;28.92;;
59193;SDS011;44967;48.598;15.650;2024-03-02T02:31:38;55.80;;;31.58;;
59193;SDS011;44967;48.598;15.650;2024-03-02T02:34:04;54.88;;;29.75;;
59193;SDS011;44967;48.598;15.650;2024-03-02T02:36:31;53.72;;;29.95;;
59193;SDS011;44967;48.598;15.650;2024-03-02T02:38:57;53.78;;;30.05;;
59193;SDS011;44967;48.598;15.650;2024-03-02T02:41:25;56.28;;;29.98;;
59193;SDS011;44967;48.598;15.650;2024-03-02T02:43:51;53.42;;;31.20;;
59193;SDS011;44967;48.598;15.650;2024-03-02T02:46:20;58.40;;;30.60;;
59193;SDS011;44967;48.598;15.650;2024-03-02T02:48:45;52.40;;;29.48;;
59193;SDS011;44967;48.598;15.650;2024-03-02T02:51:11;51.75;;;27.83;;
59193;SDS011;44967;48.598;15.650;2024-03-02T02:53:37;44.35;;;25.75;;
59193;SDS011;44967;48.598;15.650;2024-03-02T02:56:06;49.47;;;27.63;;
59193;SDS011;44967;48.598;15.650;2024-03-02T02:58:32;50.53;;;27.67;;
59193;SDS011;44967;48.598;15.650;2024-03-02T03:00:57;50.90;;;28.50;;
59193;SDS011;44967;48.598;15.650;2024-03-02T03:03:23;48.58;;;26.98;;
59193;SDS011;44967;48.598;15.650;2024-03-02T03:05:49;55.83;;;31.38;;
59193;SDS011;44967;48.598;15.650;2024-03-02T03:08:14;56.53;;;30.25;;
59193;SDS011;44967;48.598;15.650;2024-03-02T03:10:41;50.20;;;29.02;;
59193;SDS011;44967;48.598;15.650;2024-03-02T03:13:07;52.47;;;30.73;;
59193;SDS011;44967;48.598;15.650;2024-03-02T03:15:34;50.88;;;28.10;;
59193;SDS011;44967;48.598;15.650;2024-03-02T03:18:02;47.67;;;26.85;;
59193;SDS011;44967;48.598;15.650;2024-03-02T03:20:30;47.88;;;26.05;;
59193;SDS011;44967;48.598;15.650;2024-03-02T03:22:56;47.00;;;26.70;;
59193;SDS011;44967;48.598;15.650;2024-03-02T03:25:23;50.90;;;27.65;;
59193;SDS011;44967;48.598;15.650;2024-03-02T03:27:48;49.05;;;26.75;;
59193;SDS011;44967;48.598;15.650;2024-03-02T03:30:14;47.97;;;26.52;;
59193;SDS011;44967;48.598;15.650;2024-03-02T03:32:40;48.55;;;27.27;;
59193;SDS011;44967;48.598;15.650;2024-03-02T03:35:06;50.65;;;28.48;;
59193;SDS011;44967;48.598;15.650;2024-03-02T03:37:32;46.00;;;27.92;;
59193;SDS011;44967;48.598;15.650;2024-03-02T03:39:59;53.78;;;28.42;;
59193;SDS011;44967;48.598;15.650;2024-03-02T03:42:26;54.75;;;31.15;;
59193;SDS011;44967;48.598;15.650;2024-03-02T03:44:52;53.10;;;30.83;;
59193;SDS011;44967;48.598;15.650;2024-03-02T03:47:17;55.72;;;30.77;;
59193;SDS011;44967;48.598;15.650;2024-03-02T03:49:43;56.85;;;31.05;;
59193;SDS011;44967;48.598;15.650;2024-03-02T03:52:09;51.63;;;29.20;;
59193;SDS011;44967;48.598;15.650;2024-03-02T03:54:35;49.72;;;30.00;;
59193;SDS011;44967;48.598;15.650;2024-03-02T03:57:02;54.05;;;30.63;;
59193;SDS011;44967;48.598;15.650;2024-03-02T03:59:28;52.78;;;30.25;;
59193;SDS011;44967;48.598;15.650;2024-03-02T04:01:54;54.00;;;30.70;;
59193;SDS011;44967;48.598;15.650;2024-03-02T04:04:20;56.10;;;31.85;;
59193;SDS011;44967;48.598;15.650;2024-03-02T04:06:45;48.83;;;26.33;;
59193;SDS011;44967;48.598;15.650;2024-03-02T04:09:11;46.25;;;25.88;;
59193;SDS011;44967;48.598;15.650;2024-03-02T04:11:37;49.10;;;25.90;;
59193;SDS011;44967;48.598;15.650;2024-03-02T04:14:03;52.50;;;30.20;;
59193;SDS011;44967;48.598;15.650;2024-03-02T04:16:28;55.30;;;28.58;;
59193;SDS011;44967;48.598;15.650;2024-03-02T04:18:54;51.60;;;28.85;;
59193;SDS011;44967;48.598;15.650;2024-03-02T04:21:20;51.75;;;29.52;;
59193;SDS011;44967;48.598;15.650;2024-03-02T04:23:46;49.63;;;28.02;;
59193;SDS011;44967;48.598;15.650;2024-03-02T04:26:11;61.40;;;30.67;;
59193;SDS011;44967;48.598;15.650;2024-03-02T04:28:37;54.53;;;29.35;;
59193;SDS011;44967;48.598;15.650;2024-03-02T04:31:03;54.30;;;30.00;;
59193;SDS011;44967;48.598;15.650;2024-03-02T04:33:29;60.30;;;32.30;;
59193;SDS011;44967;48.598;15.650;2024-03-02T04:35:54;53.67;;;30.45;;
59193;SDS011;44967;48.598;15.650;2024-03-02T04:38:20;55.13;;;30.63;;
59193;SDS011;44967;48.598;15.650;2024-03-02T04:40:46;49.65;;;28.92;;
59193;SDS011;44967;48.598;15.650;2024-03-02T04:43:11;53.45;;;29.42;;
59193;SDS011;44967;48.598;15.650;2024-03-02T04:45:40;58.65;;;29.85;;
59193;SDS011;44967;48.598;15.650;2024-03-02T04:48:06;54.78;;;30.60;;
59193;SDS011;44967;48.598;15.650;2024-03-02T04:50:32;55.85;;;30.10;;
59193;SDS011;44967;48.598;15.650;2024-03-02T04:52:58;72.20;;;40.42;;
59193;SDS011;44967;48.598;15.650;2024-03-02T04:55:24;61.95;;;33.10;;
59193;SDS011;44967;48.598;15.650;2024-03-02T04:57:52;62.28;;;30.98;;
59193;SDS011;44967;48.598;15.650;2024-03-02T05:00:20;56.92;;;29.77;;
59193;SDS011;44967;48.598;15.650;2024-03-02T05:02:46;58.40;;;29.55;;
59193;SDS011;44967;48.598;15.650;2024-03-02T05:05:12;58.63;;;28.83;;
59193;SDS011;44967;48.598;15.650;2024-03-02T05:07:41;49.50;;;28.23;;
59193;SDS011;44967;48.598;15.650;2024-03-02T05:10:08;59.22;;;29.17;;
59193;SDS011;44967;48.598;15.650;2024-03-02T05:12:34;57.10;;;30.05;;
59193;SDS011;44967;48.598;15.650;2024-03-02T05:15:09;54.67;;;28.20;;
59193;SDS011;44967;48.598;15.650;2024-03-02T05:17:36;54.45;;;27.60;;
59193;SDS011;44967;48.598;15.650;2024-03-02T05:20:03;56.10;;;28.60;;
59193;SDS011;44967;48.598;15.650;2024-03-02T05:22:30;58.22;;;30.50;;
59193;SDS011;44967;48.598;15.650;2024-03-02T05:24:56;53.83;;;29.65;;
59193;SDS011;44967;48.598;15.650;2024-03-02T05:27:22;50.70;;;27.48;;
59193;SDS011;44967;48.598;15.650;2024-03-02T05:29:47;53.92;;;28.60;;
59193;SDS011;44967;48.598;15.650;2024-03-02T05:32:13;54.38;;;27.75;;
59193;SDS011;44967;48.598;15.650;2024-03-02T05:34:39;56.55;;;29.25;;
59193;SDS011;44967;48.598;15.650;2024-03-02T05:37:05;64.95;;;32.67;;
59193;SDS011;44967;48.598;15.650;2024-03-02T05:39:30;71.15;;;34.03;;
59193;SDS011;44967;48.598;15.650;2024-03-02T05:41:56;60.47;;;31.92;;
59193;SDS011;44967;48.598;15.650;2024-03-02T05:44:21;64.47;;;32.72;;
59193;SDS011;44967;48.598;15.650;2024-03-02T05:46:47;65.43;;;31.90;;
59193;SDS011;44967;48.598;15.650;2024-03-02T05:49:13;55.55;;;28.48;;
59193;SDS011;44967;48.598;15.650;2024-03-02T05:51:39;57.10;;;29.45;;
59193;SDS011;44967;48.598;15.650;2024-03-02T05:54:05;60.53;;;29.35;;
59193;SDS011;44967;48.598;15.650;2024-03-02T05:56:31;58.53;;;29.15;;
59193;SDS011;44967;48.598;15.650;2024-03-02T05:58:57;57.55;;;29.38;;
59193;SDS011;44967;48.598;15.650;2024-03-02T06:01:35;62.22;;;29.52;;
59193;SDS011;44967;48.598;15.650;2024-03-02T06:04:01;57.38;;;29.95;;
59193;SDS011;44967;48.598;15.650;2024-03-02T06:06:27;54.80;;;27.38;;
59193;SDS011;44967;48.598;15.650;2024-03-02T06:08:53;57.10;;;28.48;;
59193;SDS011;44967;48.598;15.650;2024-03-02T06:11:19;57.05;;;28.40;;
59193;SDS011;44967;48.598;15.650;2024-03-02T06:13:45;52.90;;;27.60;;
59193;SDS011;44967;48.598;15.650;2024-03-02T06:16:11;55.25;;;28.77;;
59193;SDS011;44967;48.598;15.650;2024-03-02T06:18:37;55.20;;;27.90;;
59193;SDS011;44967;48.598;15.650;2024-03-02T06:21:03;57.22;;;29.50;;
59193;SDS011;44967;48.598;15.650;2024-03-02T06:23:29;54.05;;;26.23;;
59193;SDS011;44967;48.598;15.650;2024-03-02T06:25:55;60.45;;;28.45;;
59193;SDS011;44967;48.598;15.650;2024-03-02T06:28:21;66.72;;;30.17;;
59193;SDS011;44967;48.598;15.650;2024-03-02T06:30:46;59.25;;;29.30;;
59193;SDS011;44967;48.598;15.650;2024-03-02T06:33:12;65.95;;;30.95;;
59193;SDS011;44967;48.598;15.650;2024-03-02T06:35:38;63.30;;;30.20;;
59193;SDS011;44967;48.598;15.650;2024-03-02T06:38:04;64.30;;;29.52;;
59193;SDS011;44967;48.598;15.650;2024-03-02T06:40:30;59.65;;;30.27;;
59193;SDS011;44967;48.598;15.650;2024-03-02T06:42:56;65.70;;;29.67;;
59193;SDS011;44967;48.598;15.650;2024-03-02T06:45:21;68.03;;;30.52;;
59193;SDS011;44967;48.598;15.650;2024-03-02T06:47:47;58.45;;;29.42;;
59193;SDS011;44967;48.598;15.650;2024-03-02T06:50:12;63.45;;;29.70;;
59193;SDS011;44967;48.598;15.650;2024-03-02T06:52:38;62.97;;;28.85;;
59193;SDS011;44967;48.598;15.650;2024-03-02T06:55:04;55.00;;;28.17;;
59193;SDS011;44967;48.598;15.650;2024-03-02T06:57:30;60.33;;;30.38;;
59193;SDS011;44967;48.598;15.650;2024-03-02T06:59:56;62.10;;;28.55;;
59193;SDS011;44967;48.598;15.650;2024-03-02T07:02:24;63.60;;;28.38;;
59193;SDS011;44967;48.598;15.650;2024-03-02T07:04:52;57.63;;;28.33;;
59193;SDS011;44967;48.598;15.650;2024-03-02T07:07:19;62.67;;;30.23;;
59193;SDS011;44967;48.598;15.650;2024-03-02T07:09:45;60.05;;;28.48;;
59193;SDS011;44967;48.598;15.650;2024-03-02T07:12:11;58.95;;;28.52;;
59193;SDS011;44967;48.598;15.650;2024-03-02T07:14:37;61.45;;;27.92;;
59193;SDS011;44967;48.598;15.650;2024-03-02T07:17:38;58.88;;;25.90;;
59193;SDS011;44967;48.598;15.650;2024-03-02T07:20:04;52.85;;;26.17;;
59193;SDS011;44967;48.598;15.650;2024-03-02T07:22:31;55.38;;;25.73;;
59193;SDS011;44967;48.598;15.650;2024-03-02T07:24:58;60.05;;;26.08;;
59193;SDS011;44967;48.598;15.650;2024-03-02T07:27:24;57.13;;;26.98;;
59193;SDS011;44967;48.598;15.650;2024-03-02T07:29:49;54.47;;;26.15;;
59193;SDS011;44967;48.598;15.650;2024-03-02T07:32:15;57.30;;;27.05;;
59193;SDS011;44967;48.598;15.650;2024-03-02T07:34:40;56.88;;;26.77;;
59193;SDS011;44967;48.598;15.650;2024-03-02T07:37:06;58.92;;;28.92;;
59193;SDS011;44967;48.598;15.650;2024-03-02T07:39:32;57.40;;;26.60;;
59193;SDS011;44967;48.598;15.650;2024-03-02T07:41:59;52.83;;;25.95;;
59193;SDS011;44967;48.598;15.650;2024-03-02T07:44:25;50.65;;;24.90;;
59193;SDS011;44967;48.598;15.650;2024-03-02T07:46:50;53.25;;;25.75;;
59193;SDS011;44967;48.598;15.650;2024-03-02T07:49:16;50.60;;;24.63;;
59193;SDS011;44967;48.598;15.650;2024-03-02T07:51:42;53.75;;;25.65;;
59193;SDS011;44967;48.598;15.650;2024-03-02T07:54:08;44.17;;;22.25;;
59193;SDS011;44967;48.598;15.650;2024-03-02T07:56:35;45.17;;;22.42;;
59193;SDS011;44967;48.598;15.650;2024-03-02T07:59:01;48.17;;;22.20;;
59193;SDS011;44967;48.598;15.650;2024-03-02T08:01:30;53.83;;;24.60;;
59193;SDS011;44967;48.598;15.650;2024-03-02T08:03:58;49.53;;;23.65;;
59193;SDS011;44967;48.598;15.650;2024-03-02T08:06:25;50.58;;;24.42;;
59193;SDS011;44967;48.598;15.650;2024-03-02T08:08:56;48.22;;;23.67;;
59193;SDS011;44967;48.598;15.650;2024-03-02T08:11:23;46.58;;;23.48;;
59193;SDS011;44967;48.598;15.650;2024-03-02T08:13:49;48.17;;;24.83;;
59193;SDS011;44967;48.598;15.650;2024-03-02T08:16:15;49.10;;;23.17;;
59193;SDS011;44967;48.598;15.650;2024-03-02T08:18:45;51.00;;;25.27;;
59193;SDS011;44967;48.598;15.650;2024-03-02T08:21:12;46.85;;;23.42;;
59193;SDS011;44967;48.598;15.650;2024-03-02T08:23:38;47.72;;;22.88;;
59193;SDS011;44967;48.598;15.650;2024-03-02T08:26:07;44.28;;;23.13;;
59193;SDS011;44967;48.598;15.650;2024-03-02T08:28:33;46.35;;;23.33;;
59193;SDS011;44967;48.598;15.650;2024-03-02T08:30:59;44.90;;;22.38;;
59193;SDS011;44967;48.598;15.650;2024-03-02T08:33:25;43.80;;;23.08;;
59193;SDS011;44967;48.598;15.650;2024-03-02T08:35:51;49.83;;;24.73;;
59193;SDS011;44967;48.598;15.650;2024-03-02T08:38:17;40.80;;;20.75;;
59193;SDS011;44967;48.598;15.650;2024-03-02T08:40:42;41.15;;;21.23;;
59193;SDS011;44967;48.598;15.650;2024-03-02T08:43:09;45.15;;;23.13;;
59193;SDS011;44967;48.598;15.650;2024-03-02T08:45:36;45.78;;;21.88;;
59193;SDS011;44967;48.598;15.650;2024-03-02T08:48:02;47.28;;;22.48;;
59193;SDS011;44967;48.598;15.650;2024-03-02T08:50:28;49.38;;;23.60;;
59193;SDS011;44967;48.598;15.650;2024-03-02T08:52:54;46.60;;;22.85;;
59193;SDS011;44967;48.598;15.650;2024-03-02T08:55:19;46.13;;;24.20;;
59193;SDS011;44967;48.598;15.650;2024-03-02T08:57:45;43.65;;;23.75;;
59193;SDS011;44967;48.598;15.650;2024-03-02T09:00:11;43.25;;;23.13;;
59193;SDS011;44967;48.598;15.650;2024-03-02T09:02:37;44.28;;;23.15;;
59193;SDS011;44967;48.598;15.650;2024-03-02T09:05:03;41.20;;;21.40;;
59193;SDS011;44967;48.598;15.650;2024-03-02T09:07:30;44.50;;;23.80;;
59193;SDS011;44967;48.598;15.650;2024-03-02T09:09:56;42.35;;;21.52;;
59193;SDS011;44967;48.598;15.650;2024-03-02T09:12:21;39.17;;;21.05;;
59193;SDS011;44967;48.598;15.650;2024-03-02T09:14:47;42.90;;;21.30;;
59193;SDS011;44967;48.598;15.650;2024-03-02T09:17:13;38.30;;;19.92;;
59193;SDS011;44967;48.598;15.650;2024-03-02T09:19:39;37.90;;;20.95;;
59193;SDS011;44967;48.598;15.650;2024-03-02T09:22:05;34.58;;;19.13;;
59193;SDS011;44967;48.598;15.650;2024-03-02T09:24:33;35.25;;;19.55;;
59193;SDS011;44967;48.598;15.650;2024-03-02T09:26:59;38.80;;;20.55;;
59193;SDS011;44967;48.598;15.650;2024-03-02T09:29:25;37.80;;;19.45;;
59193;SDS011;44967;48.598;15.650;2024-03-02T09:31:51;30.20;;;17.17;;
59193;SDS011;44967;48.598;15.650;2024-03-02T09:34:17;36.65;;;19.27;;
59193;SDS011;44967;48.598;15.650;2024-03-02T09:36:42;34.83;;;19.63;;
59193;SDS011;44967;48.598;15.650;2024-03-02T09:39:09;38.55;;;20.10;;
59193;SDS011;44967;48.598;15.650;2024-03-02T09:41:38;37.20;;;20.45;;
59193;SDS011;44967;48.598;15.650;2024-03-02T09:44:04;38.22;;;20.80;;
59193;SDS011;44967;48.598;15.650;2024-03-02T09:46:31;39.53;;;22.23;;
59193;SDS011;44967;48.598;15.650;2024-03-02T09:48:57;42.53;;;23.75;;
59193;SDS011;44967;48.598;15.650;2024-03-02T09:51:23;45.50;;;22.98;;
59193;SDS011;44967;48.598;15.650;2024-03-02T09:53:50;39.53;;;21.70;;
59193;SDS011;44967;48.598;15.650;2024-03-02T09:56:16;40.80;;;22.45;;
59193;SDS011;44967;48.598;15.650;2024-03-02T09:58:41;39.65;;;22.20;;
59193;SDS011;44967;48.598;15.650;2024-03-02T10:01:09;38.78;;;22.55;;
59193;SDS011;44967;48.598;15.650;2024-03-02T10:03:36;37.50;;;21.63;;
59193;SDS011;44967;48.598;15.650;2024-03-02T10:06:21;35.38;;;20.73;;
59193;SDS011;44967;48.598;15.650;2024-03-02T10:08:48;37.30;;;21.20;;
59193;SDS011;44967;48.598;15.650;2024-03-02T10:11:27;35.50;;;20.33;;
59193;SDS011;44967;48.598;15.650;2024-03-02T10:14:10;35.38;;;20.40;;
59193;SDS011;44967;48.598;15.650;2024-03-02T10:16:38;36.30;;;20.67;;
59193;SDS011;44967;48.598;15.650;2024-03-02T10:21:44;34.88;;;20.85;;
59193;SDS011;44967;48.598;15.650;2024-03-02T10:24:11;37.42;;;19.70;;
59193;SDS011;44967;48.598;15.650;2024-03-02T10:26:38;32.60;;;18.95;;
59193;SDS011;44967;48.598;15.650;2024-03-02T10:29:04;30.70;;;18.38;;
59193;SDS011;44967;48.598;15.650;2024-03-02T10:31:30;29.63;;;17.75;;
59193;SDS011;44967;48.598;15.650;2024-03-02T10:33:55;30.80;;;17.65;;
59193;SDS011;44967;48.598;15.650;2024-03-02T10:36:23;25.70;;;16.42;;
59193;SDS011;44967;48.598;15.650;2024-03-02T10:38:51;27.83;;;16.85;;
59193;SDS011;44967;48.598;15.650;2024-03-02T10:41:23;30.20;;;17.55;;
59193;SDS011;44967;48.598;15.650;2024-03-02T10:43:52;31.17;;;17.35;;
59193;SDS011;44967;48.598;15.650;2024-03-02T10:46:27;30.48;;;19.20;;
59193;SDS011;44967;48.598;15.650;2024-03-02T10:48:57;37.20;;;19.25;;
59193;SDS011;44967;48.598;15.650;2024-03-02T10:51:25;36.58;;;20.52;;
59193;SDS011;44967;48.598;15.650;2024-03-02T10:53:52;26.65;;;16.55;;
59193;SDS011;44967;48.598;15.650;2024-03-02T10:56:21;28.20;;;16.02;;
59193;SDS011;44967;48.598;15.650;2024-03-02T10:58:55;31.75;;;17.42;;
59193;SDS011;44967;48.598;15.650;2024-03-02T11:01:29;27.05;;;16.52;;
59193;SDS011;44967;48.598;15.650;2024-03-02T11:03:58;28.98;;;17.17;;
59193;SDS011;44967;48.598;15.650;2024-03-02T11:06:24;28.80;;;17.05;;
59193;SDS011;44967;48.598;15.650;2024-03-02T11:08:54;28.73;;;16.25;;
59193;SDS011;44967;48.598;15.650;2024-03-02T11:11:28;29.00;;;17.23;;
59193;SDS011;44967;48.598;15.650;2024-03-02T11:14:01;28.92;;;16.75;;
59193;SDS011;44967;48.598;15.650;2024-03-02T11:16:36;33.50;;;20.85;;
59193;SDS011;44967;48.598;15.650;2024-03-02T11:19:05;27.23;;;16.88;;
59193;SDS011;44967;48.598;15.650;2024-03-02T11:21:33;28.70;;;18.00;;
59193;SDS011;44967;48.598;15.650;2024-03-02T11:24:00;26.13;;;16.58;;
59193;SDS011;44967;48.598;15.650;2024-03-02T11:26:27;27.20;;;16.20;;
59193;SDS011;44967;48.598;15.650;2024-03-02T11:28:54;23.80;;;14.90;;
59193;SDS011;44967;48.598;15.650;2024-03-02T11:31:21;26.60;;;16.75;;
59193;SDS011;44967;48.598;15.650;2024-03-02T11:33:46;25.75;;;15.52;;
59193;SDS011;44967;48.598;15.650;2024-03-02T11:36:12;25.08;;;15.80;;
59193;SDS011;44967;48.598;15.650;2024-03-02T11:38:38;25.95;;;16.17;;
59193;SDS011;44967;48.598;15.650;2024-03-02T11:41:08;29.65;;;16.17;;
59193;SDS011;44967;48.598;15.650;2024-03-02T11:43:36;26.35;;;16.00;;
59193;SDS011;44967;48.598;15.650;2024-03-02T11:46:05;25.42;;;16.20;;
59193;SDS011;44967;48.598;15.650;2024-03-02T11:48:37;29.05;;;16.58;;
59193;SDS011;44967;48.598;15.650;2024-03-02T11:51:04;26.70;;;15.98;;
59193;SDS011;44967;48.598;15.650;2024-03-02T11:53:30;30.05;;;18.38;;
59193;SDS011;44967;48.598;15.650;2024-03-02T11:55:59;29.35;;;18.02;;
59193;SDS011;44967;48.598;15.650;2024-03-02T11:58:27;26.70;;;16.83;;
59193;SDS011;44967;48.598;15.650;2024-03-02T12:00:53;31.85;;;17.50;;
59193;SDS011;44967;48.598;15.650;2024-03-02T12:03:21;28.27;;;17.65;;
59193;SDS011;44967;48.598;15.650;2024-03-02T12:05:49;26.20;;;17.02;;
59193;SDS011;44967;48.598;15.650;2024-03-02T12:08:16;31.52;;;17.98;;
59193;SDS011;44967;48.598;15.650;2024-03-02T12:10:42;28.83;;;17.10;;
59193;SDS011;44967;48.598;15.650;2024-03-02T12:13:09;25.55;;;16.90;;
59193;SDS011;44967;48.598;15.650;2024-03-02T12:15:38;30.20;;;18.08;;
59193;SDS011;44967;48.598;15.650;2024-03-02T12:18:05;26.40;;;18.00;;
59193;SDS011;44967;48.598;15.650;2024-03-02T12:20:32;27.98;;;17.73;;
59193;SDS011;44967;48.598;15.650;2024-03-02T12:22:59;29.45;;;18.00;;
59193;SDS011;44967;48.598;15.650;2024-03-02T12:25:26;30.40;;;18.58;;
59193;SDS011;44967;48.598;15.650;2024-03-02T12:27:53;28.63;;;17.85;;
59193;SDS011;44967;48.598;15.650;2024-03-02T12:30:21;33.10;;;18.58;;
59193;SDS011;44967;48.598;15.650;2024-03-02T12:32:48;30.65;;;20.00;;
59193;SDS011;44967;48.598;15.650;2024-03-02T12:35:14;33.05;;;19.75;;
59193;SDS011;44967;48.598;15.650;2024-03-02T12:37:50;32.13;;;19.60;;
59193;SDS011;44967;48.598;15.650;2024-03-02T12:40:17;38.40;;;21.55;;
59193;SDS011;44967;48.598;15.650;2024-03-02T12:42:45;31.30;;;19.60;;
59193;SDS011;44967;48.598;15.650;2024-03-02T12:45:12;31.02;;;18.98;;
59193;SDS011;44967;48.598;15.650;2024-03-02T12:47:41;31.42;;;19.60;;
59193;SDS011;44967;48.598;15.650;2024-03-02T12:50:09;32.60;;;19.08;;
59193;SDS011;44967;48.598;15.650;2024-03-02T12:52:35;36.08;;;21.92;;
59193;SDS011;44967;48.598;15.650;2024-03-02T12:55:02;33.67;;;20.05;;
59193;SDS011;44967;48.598;15.650;2024-03-02T12:57:31;33.33;;;19.45;;
59193;SDS011;44967;48.598;15.650;2024-03-02T13:00:00;35.83;;;21.13;;
59193;SDS011;44967;48.598;15.650;2024-03-02T13:02:35;33.78;;;20.23;;
59193;SDS011;44967;48.598;15.650;2024-03-02T13:05:02;33.22;;;20.40;;
59193;SDS011;44967;48.598;15.650;2024-03-02T13:07:28;30.80;;;18.85;;
59193;SDS011;44967;48.598;15.650;2024-03-02T13:09:55;33.60;;;20.00;;
59193;SDS011;44967;48.598;15.650;2024-03-02T13:12:22;30.42;;;19.25;;
59193;SDS011;44967;48.598;15.650;2024-03-02T13:14:52;102.57;;;58.40;;
59193;SDS011;44967;48.598;15.650;2024-03-02T13:17:18;37.10;;;22.67;;
59193;SDS011;44967;48.598;15.650;2024-03-02T13:19:51;45.13;;;25.02;;
59193;SDS011;44967;48.598;15.650;2024-03-02T13:22:23;43.97;;;23.67;;
59193;SDS011;44967;48.598;15.650;2024-03-02T13:24:50;41.78;;;25.25;;
59193;SDS011;44967;48.598;15.650;2024-03-02T13:27:17;38.45;;;24.15;;
59193;SDS011;44967;48.598;15.650;2024-03-02T13:29:46;39.85;;;24.63;;
59193;SDS011;44967;48.598;15.650;2024-03-02T13:32:16;40.13;;;25.85;;
59193;SDS011;44967;48.598;15.650;2024-03-02T13:34:42;44.13;;;25.75;;
59193;SDS011;44967;48.598;15.650;2024-03-02T13:37:09;43.17;;;26.75;;
59193;SDS011;44967;48.598;15.650;2024-03-02T13:39:35;41.90;;;25.42;;
59193;SDS011;44967;48.598;15.650;2024-03-02T13:42:09;42.03;;;26.23;;
59193;SDS011;44967;48.598;15.650;2024-03-02T13:44:35;45.58;;;24.38;;
59193;SDS011;44967;48.598;15.650;2024-03-02T13:47:02;41.85;;;23.73;;
59193;SDS011;44967;48.598;15.650;2024-03-02T13:49:29;41.22;;;24.40;;
59193;SDS011;44967;48.598;15.650;2024-03-02T13:52:00;42.53;;;24.30;;
59193;SDS011;44967;48.598;15.650;2024-03-02T13:54:28;39.25;;;24.05;;
59193;SDS011;44967;48.598;15.650;2024-03-02T13:56:55;40.80;;;24.25;;
59193;SDS011;44967;48.598;15.650;2024-03-02T13:59:23;41.35;;;25.52;;
59193;SDS011;44967;48.598;15.650;2024-03-02T14:01:50;43.72;;;25.17;;
59193;SDS011;44967;48.598;15.650;2024-03-02T14:04:16;39.50;;;25.05;;
59193;SDS011;44967;48.598;15.650;2024-03-02T14:06:42;44.92;;;24.40;;
59193;SDS011;44967;48.598;15.650;2024-03-02T14:09:09;44.38;;;24.50;;
59193;SDS011;44967;48.598;15.650;2024-03-02T14:11:34;39.58;;;25.27;;
59193;SDS011;44967;48.598;15.650;2024-03-02T14:14:00;41.33;;;23.88;;
59193;SDS011;44967;48.598;15.650;2024-03-02T14:16:27;39.00;;;25.25;;